Главная страница
METAR-TAF:

METAR-TAF

Аэропорты :

Linden, Нью-Джерси, США

широта: 40-37-03N, долгота: 074-14-40W, высота над уровнем моря: 7 м

Текущие метеонаблюдения

Эта сводка был подготовлена 16 минут назад, в 20:15 UTC
Ветер 23 Узел от западно-северо-западный с порывами до 35 Узел
Температура 15°C
Влажность 48%
Давление 996 hPa
Видимость: 16.1 км
Рассеянная облачность на высоте 4800 фута

METAR: KLDJ 172015Z AUTO 30023G35KT 10SM BKN048 15/04 A2942 RMK AO2 T01450039

Время: 16:31 (20:31 UTC)


TAF: отсутствует

Метеонаблюдения и прогнозы для более 4000 аэропортов (сводки METAR и TAF).

Имеющиеся станции представлены на карте желтыми и красными точками.

Чтобы увидеть название станции, наведите на нее мышь.

Затем щелкните, чтобы увидеть метеонаблюдения и метеопрогнозы.

Управление картой: чтобы увеличить масштаб, щелкните зеленые кнопки с черным крестиком; чтобы уменьшить масштаб, щелкните зеленую кнопку с тире; для просмотра соседних карт щелкайте зеленые стрелки.


METAR-TAF: